Alicia, AR

1:35 AM CDT on August 02, 2014 (GMT -0500)
Walnut Ridge Regional (KARG) Elev 272 ft | 36.12 °N, 90.93 °W | Change Station

Current weather conditions updated 20 minutes ago

Clear
Clear
70 °F
Feels Like 70 °F
N
4
Wind Variable Wind from NNW

Today is forecast to be Warmer than yesterday.

Today
High -- | Low -- °F
--% Chance of Precip.
Yesterday
High -- | Low -- °F
Precip. -- in
6:11 AM 8:07 PM
Waxing Crescent, 33% visible
Pressure 30.05 in
Visibility 10.0 miles
Clouds Clear
Dew Point 57 °F
Humidity 64%
Rainfall 0.00 in
Snow Depth Not available.
UV 0 out of 12
Pollen 6.60 out of 12
Air Quality Not available.
Flu Activity Not available.
METAR KARG 020615Z AUTO 33003KT 10SM CLR 21/14 A3005 RMK AO1

More Conditions Fewer Conditions

Pressure 30.05 in
Visibility 10.0 miles
Clouds Clear
Dew Point 57 °F
Humidity 64%
Rainfall 0.00 in
Snow Depth Not available.
UV 0 out of 12
Pollen 6.60 out of 12
Air Quality Not available.
Flu Activity Not available.
METAR KARG 020615Z AUTO 33003KT 10SM CLR 21/14 A3005 RMK AO1

More Conditions Fewer Conditions

10-Day Weather Forecast

Almanac

Astronomy

Aug. 02, 2014 Rise Set
Actual Time 6:11 AM CDT 8:07 PM CDT
Civil Twilight 5:43 AM CDT 8:35 PM CDT
Nautical Twilight 5:09 AM CDT 9:10 PM CDT
Astronomical Twilight 4:32 AM CDT 9:46 PM CDT
Moon 12:20 PM CDT 11:40 PM CDT
Length of Visible Light 14h 52m
Length of Day
13h 56m
Tomorrow will be 1m 45s shorter.
Waxing Crescent, 33% of the Moon is Illuminated
Today
Waxing Crescent
Aug 3
First Quarter
Aug 10
Full
Aug 17
Last Quarter
Aug 25
New

Today's Extremes

State Highs State Lows

Community

WunderPhotos

Upload Photos

1,739,830 photos uploaded!

Nearby

Snow Depth

Station Depth Elevation
No new snow has been reported.

Earthquake Activity

City Distance Mag. Time & Date
No recent earthquake activity has been reported nearby.
Minimum magnitude displayed is 2.5.

Coastal Water Temperatures

Place Temperature
No Stations Reporting

Nearby Weather Stations

Station Location Temp. Heat Index Dew Point Humidity Wind Precip. Elev Updated Type
MesoWest MINTRN , Minturn, AR 68 °F - - - North  at  - 0.00 in / hr 259 ft 12:20 AM CDT MADIS
Rural Ravenden Springs, Ravenden Springs, AR 70.5 °F 76 °F 54 °F 57% SW  at  0.0 mph 0.00 in / hr 605 ft 1:34 AM CDT Rapid Fire
MesoWest JNSBRO , Jonesboro, AR 72 °F - - - North  at  - 0.00 in / hr 285 ft 12:25 AM CDT MADIS
Carriage Hill, Paragould, AR 70.7 °F - 66 °F 85% NW  at  1.0 mph 0.00 in / hr 300 ft 1:35 AM CDT Rapid Fire
William White Subdivision, Paragould, AR 69.1 °F - 68 °F 98% WSW  at  0.0 mph 0.00 in / hr 331 ft 1:35 AM CDT Rapid Fire
MesoWest BETHEL , Brookland, AR 67 °F - - - North  at  - 0.00 in / hr 288 ft 12:25 AM CDT MADIS

Show More Stations Show Fewer Stations